^^
Saratoga-Weather Station Historical Data
Daily Summary for June 21, 2020 Units:  Metric    English   Both
Daily Weekly Monthly Yearly Custom
  High: Low: Average:
Temperature: 25.3 °C 14.9 °C 18.5 °C
Dew Point: 11.8 °C 5.9 °C 9.7 °C
Humidity: 68% 30% 58%
Wind Speed: 14.3km/h 0km/h 3.8km/h
Wind Gust: 17.7km/h - -
Wind- - SW
Pressure: 1021.3 hPa 1019.0 hPa -
Precipitation: 0.0 mm    
Historical Graphs
 
 
Tabular Data for June 21, 2020
Time Temperature Dew Point Pressure Wind Wind Speed Wind Gust Humidity Rainfall Rate (Hourly) solar
00:04 18.7 °C 11.8 °C 1019.0 hPa NW 3.2 km/h 8 km/h 64% 0.0 mm 0 W/m2
00:10 18.7 °C 11.8 °C 1019.0 hPa NNE 4.7 km/h 6.4 km/h 64% 0.0 mm 0 W/m2
00:15 18.7 °C 11.8 °C 1019.0 hPa WNW 4.7 km/h 6.4 km/h 64% 0.0 mm 0 W/m2
00:20 18.6 °C 11.4 °C 1019.0 hPa SE 3.2 km/h 14.5 km/h 63% 0.0 mm 0 W/m2
00:25 18.6 °C 11.4 °C 1019.0 hPa NW 3.2 km/h 6.4 km/h 63% 0.0 mm 0 W/m2
00:30 18.6 °C 11.4 °C 1019.0 hPa NW 1.4 km/h 14.5 km/h 63% 0.0 mm 0 W/m2
00:35 18.5 °C 11.1 °C 1019.0 hPa WNW 3.2 km/h 9.7 km/h 62% 0.0 mm 0 W/m2
00:40 18.5 °C 11.1 °C 1019.0 hPa WNW 4.7 km/h 12.9 km/h 62% 0.0 mm 0 W/m2
00:45 18.4 °C 11 °C 1019.0 hPa West 4.7 km/h 9.7 km/h 62% 0.0 mm 0 W/m2
00:50 18.4 °C 11 °C 1019.0 hPa WNW 3.2 km/h 12.9 km/h 62% 0.0 mm 0 W/m2
00:55 18.4 °C 11 °C 1019.0 hPa NNW 3.2 km/h 4.8 km/h 62% 0.0 mm 0 W/m2
01:00 18.3 °C 10.9 °C 1019.3 hPa WSW 1.4 km/h 6.4 km/h 62% 0.0 mm 0 W/m2
01:05 18.3 °C 10.9 °C 1019.3 hPa NW 1.4 km/h 6.4 km/h 62% 0.0 mm 0 W/m2
01:10 18.3 °C 10.9 °C 1019.3 hPa WNW 1.4 km/h 11.3 km/h 62% 0.0 mm 0 W/m2
01:15 18.3 °C 10.9 °C 1019.3 hPa West 3.2 km/h 6.4 km/h 62% 0.0 mm 0 W/m2
01:20 18.3 °C 10.9 °C 1019.3 hPa NNW 4.7 km/h 9.7 km/h 62% 0.0 mm 0 W/m2
01:25 18.3 °C 10.6 °C 1019.3 hPa West 6.4 km/h 9.7 km/h 61% 0.0 mm 0 W/m2
01:30 18.3 °C 10.6 °C 1019.3 hPa WNW 3.2 km/h 6.4 km/h 61% 0.0 mm 0 W/m2
01:35 18.3 °C 10.9 °C 1019.6 hPa WNW 3.2 km/h 14.5 km/h 62% 0.0 mm 0 W/m2
01:40 18.2 °C 10.8 °C 1019.6 hPa WSW 4.7 km/h 4.8 km/h 62% 0.0 mm 0 W/m2
01:45 18.1 °C 10.9 °C 1019.6 hPa NNW 6.4 km/h 14.5 km/h 63% 0.0 mm 0 W/m2
01:50 18 °C 10.9 °C 1019.6 hPa ENE 4.7 km/h 4.8 km/h 63% 0.0 mm 0 W/m2
01:55 17.9 °C 10.8 °C 1019.6 hPa NNW 1.4 km/h 6.4 km/h 63% 0.0 mm 0 W/m2
02:00 17.8 °C 10.7 °C 1019.6 hPa SW 3.2 km/h 11.3 km/h 63% 0.0 mm 0 W/m2
02:05 17.7 °C 10.6 °C 1019.6 hPa NNW 1.4 km/h 4.8 km/h 63% 0.0 mm 0 W/m2
02:10 17.7 °C 10.6 °C 1019.6 hPa NNE 3.2 km/h 11.3 km/h 63% 0.0 mm 0 W/m2
02:15 17.6 °C 10.5 °C 1019.6 hPa North 4.7 km/h 4.8 km/h 63% 0.0 mm 0 W/m2
02:20 17.5 °C 10.4 °C 1019.6 hPa WNW 3.2 km/h 11.3 km/h 63% 0.0 mm 0 W/m2
02:30 17.3 °C 10.2 °C 1019.6 hPa NNW 1.4 km/h 11.3 km/h 63% 0.0 mm 0 W/m2
02:35 17.2 °C 9.9 °C 1019.6 hPa WSW 3.2 km/h 4.8 km/h 62% 0.0 mm 0 W/m2
02:40 17.2 °C 10.1 °C 1019.6 hPa ESE 1.4 km/h 6.4 km/h 63% 0.0 mm 0 W/m2
02:45 17.1 °C 9.8 °C 1020.0 hPa NW 3.2 km/h 6.4 km/h 62% 0.0 mm 0 W/m2
02:50 16.9 °C 9.8 °C 1020.0 hPa WNW 3.2 km/h 4.8 km/h 63% 0.0 mm 0 W/m2
02:55 16.9 °C 9.8 °C 1019.6 hPa North 1.4 km/h 3.2 km/h 63% 0.0 mm 0 W/m2
03:00 16.8 °C 9.7 °C 1019.6 hPa Calm   3.2 km/h 63% 0.0 mm 0 W/m2
03:05 16.7 °C 9.6 °C 1020.0 hPa WNW 3.2 km/h 4.8 km/h 63% 0.0 mm 0 W/m2
03:10 16.5 °C 9.4 °C 1020.0 hPa West 3.2 km/h 6.4 km/h 63% 0.0 mm 0 W/m2
03:15 16.4 °C 9.3 °C 1019.6 hPa NNW 1.4 km/h 8 km/h 63% 0.0 mm 0 W/m2
03:20 16.3 °C 9.2 °C 1020.0 hPa WNW 1.4 km/h 3.2 km/h 63% 0.0 mm 0 W/m2
03:25 16.3 °C 9.2 °C 1019.6 hPa WSW 6.4 km/h 6.4 km/h 63% 0.0 mm 0 W/m2
03:36 16.1 °C 9.3 °C 1020.0 hPa ENE 1.4 km/h 6.4 km/h 64% 0.0 mm 0 W/m2
03:41 15.9 °C 9.1 °C 1020.0 hPa West 4.7 km/h 9.7 km/h 64% 0.0 mm 0 W/m2
03:46 15.9 °C 9.1 °C 1020.0 hPa NNW 1.4 km/h 4.8 km/h 64% 0.0 mm 0 W/m2
03:51 15.8 °C 9 °C 1020.0 hPa West 3.2 km/h 4.8 km/h 64% 0.0 mm 0 W/m2
03:56 15.7 °C 8.9 °C 1020.0 hPa WSW 4.7 km/h 6.4 km/h 64% 0.0 mm 0 W/m2
04:01 15.7 °C 8.9 °C 1020.0 hPa WNW 3.2 km/h 3.2 km/h 64% 0.0 mm 0 W/m2
04:06 15.6 °C 8.8 °C 1020.0 hPa NW 3.2 km/h 9.7 km/h 64% 0.0 mm 0 W/m2
04:11 15.6 °C 8.8 °C 1020.0 hPa West 3.2 km/h 6.4 km/h 64% 0.0 mm 0 W/m2
04:16 15.5 °C 8.7 °C 1020.0 hPa Calm   6.4 km/h 64% 0.0 mm 0 W/m2
04:21 15.4 °C 8.6 °C 1020.0 hPa West 6.4 km/h 12.9 km/h 64% 0.0 mm 0 W/m2
04:26 15.3 °C 8.5 °C 1020.0 hPa WSW 6.4 km/h 6.4 km/h 64% 0.0 mm 0 W/m2
04:31 15.3 °C 8.5 °C 1020.0 hPa NNW 1.4 km/h 11.3 km/h 64% 0.0 mm 0 W/m2
04:36 15.2 °C 8.4 °C 1020.0 hPa NNW 1.4 km/h 4.8 km/h 64% 0.0 mm 0 W/m2
04:41 15.2 °C 8.7 °C 1020.0 hPa WSW 4.7 km/h 11.3 km/h 65% 0.0 mm 0 W/m2
04:46 15.1 °C 8.6 °C 1020.0 hPa NW 1.4 km/h 6.4 km/h 65% 0.0 mm 0 W/m2
04:51 15.1 °C 8.6 °C 1020.0 hPa WSW 4.7 km/h 11.3 km/h 65% 0.0 mm 0 W/m2
04:56 15 °C 8.5 °C 1020.0 hPa WNW 3.2 km/h 4.8 km/h 65% 0.0 mm 0 W/m2
05:01 15 °C 8.5 °C 1020.0 hPa WSW 3.2 km/h 4.8 km/h 65% 0.0 mm 0 W/m2
05:06 14.9 °C 8.4 °C 1020.0 hPa WNW 3.2 km/h 11.3 km/h 65% 0.0 mm 0 W/m2
05:11 14.9 °C 8.4 °C 1020.0 hPa NE 1.4 km/h 12.9 km/h 65% 0.0 mm 0 W/m2
05:16 14.9 °C 8.4 °C 1020.0 hPa North 4.7 km/h 8 km/h 65% 0.0 mm 0 W/m2
05:21 15 °C 8.5 °C 1020.0 hPa West 6.4 km/h 6.4 km/h 65% 0.0 mm 0 W/m2
05:26 15.1 °C 8.6 °C 1020.0 hPa NW 4.7 km/h 9.7 km/h 65% 0.0 mm 0 W/m2
05:31 15.2 °C 8.7 °C 1020.0 hPa WNW 4.7 km/h 9.7 km/h 65% 0.0 mm 0 W/m2
05:36 15.2 °C 8.7 °C 1020.0 hPa WNW 4.7 km/h 6.4 km/h 65% 0.0 mm 0 W/m2
05:41 15.2 °C 8.7 °C 1020.0 hPa NW 3.2 km/h 9.7 km/h 65% 0.0 mm 0 W/m2
05:46 15.2 °C 8.7 °C 1020.0 hPa North 1.4 km/h 4.8 km/h 65% 0.0 mm 0 W/m2
05:51 15.3 °C 8.8 °C 1020.0 hPa WNW 1.4 km/h 8 km/h 65% 0.0 mm 0 W/m2
05:56 15.2 °C 8.7 °C 1020.0 hPa WNW 3.2 km/h 4.8 km/h 65% 0.0 mm 0 W/m2
06:01 15.2 °C 8.7 °C 1020.3 hPa WNW 6.4 km/h 6.4 km/h 65% 0.0 mm 0 W/m2
06:06 15.2 °C 8.7 °C 1020.0 hPa South 7.9 km/h 8 km/h 65% 0.0 mm 5 W/m2
06:11 15.2 °C 8.7 °C 1020.3 hPa Calm   3.2 km/h 65% 0.0 mm 7 W/m2
06:16 15.2 °C 8.7 °C 1020.3 hPa NNW 4.7 km/h 11.3 km/h 65% 0.0 mm 9 W/m2
06:21 15.1 °C 8.6 °C 1020.0 hPa SW 1.4 km/h 3.2 km/h 65% 0.0 mm 12 W/m2
06:26 15.1 °C 8.8 °C 1020.0 hPa NW 1.4 km/h 4.8 km/h 66% 0.0 mm 16 W/m2
06:31 15.1 °C 8.8 °C 1020.0 hPa NNW 3.2 km/h 6.4 km/h 66% 0.0 mm 21 W/m2
06:36 15.1 °C 8.8 °C 1020.0 hPa WNW 6.4 km/h 14.5 km/h 66% 0.0 mm 26 W/m2
06:41 15 °C 8.7 °C 1020.3 hPa WNW 1.4 km/h 8 km/h 66% 0.0 mm 32 W/m2
06:46 14.9 °C 8.8 °C 1020.3 hPa NNW 6.4 km/h 14.5 km/h 67% 0.0 mm 39 W/m2
06:51 14.9 °C 8.8 °C 1020.3 hPa SW 1.4 km/h 3.2 km/h 67% 0.0 mm 46 W/m2
06:56 14.9 °C 8.8 °C 1020.3 hPa NW 1.4 km/h 3.2 km/h 67% 0.0 mm 53 W/m2
07:01 14.9 °C 8.8 °C 1020.3 hPa Calm   3.2 km/h 67% 0.0 mm 58 W/m2
07:06 14.9 °C 8.8 °C 1020.3 hPa Calm   12.9 km/h 67% 0.0 mm 54 W/m2
07:11 14.9 °C 8.8 °C 1020.3 hPa NNW 1.4 km/h 8 km/h 67% 0.0 mm 46 W/m2
07:16 14.9 °C 8.8 °C 1020.3 hPa North 3.2 km/h 6.4 km/h 67% 0.0 mm 39 W/m2
07:21 14.9 °C 9 °C 1020.7 hPa NW 3.2 km/h 8 km/h 68% 0.0 mm 40 W/m2
07:26 14.9 °C 9 °C 1020.7 hPa NW 3.2 km/h 6.4 km/h 68% 0.0 mm 39 W/m2
07:31 14.9 °C 9 °C 1020.7 hPa SSE 1.4 km/h 8 km/h 68% 0.0 mm 39 W/m2
07:36 14.9 °C 9 °C 1020.7 hPa WNW 3.2 km/h 11.3 km/h 68% 0.0 mm 39 W/m2
07:41 15 °C 9.1 °C 1020.7 hPa WNW 4.7 km/h 9.7 km/h 68% 0.0 mm 39 W/m2
07:46 15.1 °C 9.2 °C 1020.7 hPa East 3.2 km/h 3.2 km/h 68% 0.0 mm 40 W/m2
07:51 15.1 °C 9.2 °C 1020.7 hPa NNW 13 km/h 12.9 km/h 68% 0.0 mm 40 W/m2
07:56 15.3 °C 9.4 °C 1020.7 hPa NW 4.7 km/h 9.7 km/h 68% 0.0 mm 165 W/m2
08:01 15.4 °C 9.5 °C 1020.7 hPa NW 4.7 km/h 6.4 km/h 68% 0.0 mm 229 W/m2
08:06 15.6 °C 9.5 °C 1020.7 hPa NW 1.4 km/h 9.7 km/h 67% 0.0 mm 244 W/m2
08:11 15.7 °C 9.6 °C 1020.7 hPa NNW 1.4 km/h 3.2 km/h 67% 0.0 mm 258 W/m2
08:16 16 °C 9.9 °C 1021.0 hPa NNW 1.4 km/h 9.7 km/h 67% 0.0 mm 271 W/m2
08:21 16.1 °C 9.7 °C 1021.0 hPa ENE 4.7 km/h 6.4 km/h 66% 0.0 mm 287 W/m2
08:26 16.2 °C 9.8 °C 1021.0 hPa NNW 6.4 km/h 9.7 km/h 66% 0.0 mm 239 W/m2
08:31 16.3 °C 9.9 °C 1021.0 hPa North 4.7 km/h 4.8 km/h 66% 0.0 mm 97 W/m2
08:42 16.6 °C 10 °C 1021.0 hPa NE 6.4 km/h 8 km/h 65% 0.0 mm 51 W/m2
08:47 16.9 °C 10 °C 1021.0 hPa NNE 3.2 km/h 9.7 km/h 64% 0.0 mm 51 W/m2
08:52 17.3 °C 10.4 °C 1021.0 hPa WNW 11.1 km/h 11.3 km/h 64% 0.0 mm 51 W/m2
08:57 17.2 °C 10.3 °C 1021.0 hPa NW 14.3 km/h 14.5 km/h 64% 0.0 mm 51 W/m2
09:02 17.2 °C 10.3 °C 1021.0 hPa West 6.4 km/h 11.3 km/h 64% 0.0 mm 51 W/m2
09:07 17.3 °C 10.7 °C 1021.0 hPa East 1.4 km/h 3.2 km/h 65% 0.0 mm 53 W/m2
09:12 17.7 °C 10.6 °C 1021.3 hPa NNW 1.4 km/h 4.8 km/h 63% 0.0 mm 54 W/m2
09:17 17.9 °C 10.8 °C 1021.3 hPa North 3.2 km/h 9.7 km/h 63% 0.0 mm 127 W/m2
09:22 18.2 °C 10.8 °C 1021.3 hPa East 3.2 km/h 9.7 km/h 62% 0.0 mm 374 W/m2
09:27 18.4 °C 10.7 °C 1021.3 hPa NW 1.4 km/h 6.4 km/h 61% 0.0 mm 452 W/m2
09:32 18.6 °C 10.9 °C 1021.3 hPa East 4.7 km/h 4.8 km/h 61% 0.0 mm 464 W/m2
09:37 18.8 °C 10.9 °C 1021.3 hPa NE 1.4 km/h 6.4 km/h 60% 0.0 mm 496 W/m2
09:42 18.9 °C 10.7 °C 1021.3 hPa NNW 1.4 km/h 14.5 km/h 59% 0.0 mm 508 W/m2
09:47 19.1 °C 10.9 °C 1021.3 hPa West 4.7 km/h 8 km/h 59% 0.0 mm 522 W/m2
09:52 19.3 °C 11.1 °C 1021.3 hPa NNE 4.7 km/h 14.5 km/h 59% 0.0 mm 534 W/m2
09:57 19.4 °C 10.9 °C 1021.3 hPa NNW 3.2 km/h 17.7 km/h 58% 0.0 mm 548 W/m2
10:02 19.4 °C 11.2 °C 1021.3 hPa ESE 4.7 km/h 11.3 km/h 59% 0.0 mm 476 W/m2
10:08 19.4 °C 10.9 °C 1021.3 hPa East 3.2 km/h 14.5 km/h 58% 0.0 mm 65 W/m2
10:13 19.6 °C 11.4 °C 1021.3 hPa NE 9.7 km/h 9.7 km/h 59% 0.0 mm 146 W/m2
10:18 19.8 °C 11.3 °C 1021.3 hPa ENE 1.4 km/h 14.5 km/h 58% 0.0 mm 591 W/m2
10:23 19.9 °C 11.1 °C 1021.3 hPa NW 6.4 km/h 6.4 km/h 57% 0.0 mm 606 W/m2
10:28 20 °C 11.2 °C 1021.3 hPa SE 4.7 km/h 11.3 km/h 57% 0.0 mm 621 W/m2
10:33 20.3 °C 11.2 °C 1021.3 hPa NW 4.7 km/h 4.8 km/h 56% 0.0 mm 633 W/m2
10:38 20.6 °C 11 °C 1021.3 hPa NE 3.2 km/h 6.4 km/h 54% 0.0 mm 643 W/m2
10:43 20.7 °C 11.1 °C 1021.3 hPa East 3.2 km/h 4.8 km/h 54% 0.0 mm 657 W/m2
10:48 20.7 °C 10.8 °C 1021.3 hPa South 3.2 km/h 6.4 km/h 53% 0.0 mm 666 W/m2
10:53 20.9 °C 11.2 °C 1021.3 hPa SE 4.7 km/h 6.4 km/h 54% 0.0 mm 680 W/m2
10:58 21 °C 10.5 °C 1021.3 hPa NNW 3.2 km/h 6.4 km/h 51% 0.0 mm 691 W/m2
11:03 21 °C 10.5 °C 1021.3 hPa North 3.2 km/h 6.4 km/h 51% 0.0 mm 701 W/m2
11:08 21.1 °C 10.9 °C 1021.3 hPa WSW 1.4 km/h 6.4 km/h 52% 0.0 mm 707 W/m2
11:13 21.2 °C 10.1 °C 1021.3 hPa ESE 3.2 km/h 9.7 km/h 49% 0.0 mm 722 W/m2
11:18 21.2 °C 10.7 °C 1021.3 hPa ENE 13 km/h 16.1 km/h 51% 0.0 mm 731 W/m2
11:23 21.2 °C 10.4 °C 1021.3 hPa East 9.7 km/h 14.5 km/h 50% 0.0 mm 742 W/m2
11:28 21.4 °C 10.2 °C 1021.3 hPa ESE 6.4 km/h 6.4 km/h 49% 0.0 mm 752 W/m2
11:33 21.4 °C 10.5 °C 1021.3 hPa NNW 4.7 km/h 14.5 km/h 50% 0.0 mm 761 W/m2
11:38 21.7 °C 10.8 °C 1021.3 hPa ENE 4.7 km/h 11.3 km/h 50% 0.0 mm 772 W/m2
11:43 21.8 °C 10.6 °C 1021.0 hPa NNW 3.2 km/h 12.9 km/h 49% 0.0 mm 779 W/m2
11:48 22.1 °C 10.9 °C 1021.0 hPa East 9.7 km/h 12.9 km/h 49% 0.0 mm 788 W/m2
11:53 22.2 °C 11.3 °C 1021.0 hPa ENE 4.7 km/h 9.7 km/h 50% 0.0 mm 795 W/m2
11:58 22.1 °C 10.9 °C 1021.0 hPa NW 4.7 km/h 8 km/h 49% 0.0 mm 805 W/m2
12:03 22.2 °C 11 °C 1021.0 hPa ESE 1.4 km/h 4.8 km/h 49% 0.0 mm 810 W/m2
12:09 22.4 °C 10.5 °C 1021.0 hPa WNW 3.2 km/h 6.4 km/h 47% 0.0 mm 821 W/m2
12:14 22.6 °C 10.7 °C 1021.3 hPa West 4.7 km/h 8 km/h 47% 0.0 mm 823 W/m2
12:19 22.8 °C 10.9 °C 1021.3 hPa North 3.2 km/h 8 km/h 47% 0.0 mm 838 W/m2
12:24 23.1 °C 10.8 °C 1021.0 hPa West 1.4 km/h 4.8 km/h 46% 0.0 mm 844 W/m2
12:29 23.2 °C 10.3 °C 1021.0 hPa West 1.4 km/h 9.7 km/h 44% 0.0 mm 842 W/m2
12:34 23.1 °C 10.2 °C 1021.0 hPa NW 4.7 km/h 11.3 km/h 44% 0.0 mm 844 W/m2
12:39 23.1 °C 10.2 °C 1021.0 hPa ESE 1.4 km/h 11.3 km/h 44% 0.0 mm 858 W/m2
12:44 23.4 °C 10.8 °C 1021.0 hPa ENE 1.4 km/h 6.4 km/h 45% 0.0 mm 861 W/m2
12:49 23.7 °C 10.7 °C 1021.0 hPa Calm   4.8 km/h 44% 0.0 mm 863 W/m2
12:54 23.7 °C 10 °C 1021.0 hPa NW 3.2 km/h 6.4 km/h 42% 0.0 mm 860 W/m2
12:59 23.7 °C 10 °C 1021.0 hPa NNW 9.7 km/h 12.9 km/h 42% 0.0 mm 872 W/m2
13:04 23.7 °C 9.7 °C 1021.0 hPa West 4.7 km/h 8 km/h 41% 0.0 mm 881 W/m2
13:09 23.4 °C 9.4 °C 1021.0 hPa NW 4.7 km/h 16.1 km/h 41% 0.0 mm 884 W/m2
13:14 23.6 °C 8.8 °C 1021.0 hPa North 4.7 km/h 8 km/h 39% 0.0 mm 882 W/m2
13:19 23.9 °C 8.7 °C 1021.0 hPa ENE 4.7 km/h 12.9 km/h 38% 0.0 mm 891 W/m2
13:24 24.1 °C 8.9 °C 1021.0 hPa NE 9.7 km/h 9.7 km/h 38% 0.0 mm 889 W/m2
13:29 24.3 °C 8.3 °C 1021.0 hPa NE 3.2 km/h 8 km/h 36% 0.0 mm 893 W/m2
13:34 24.4 °C 8.8 °C 1021.0 hPa WSW 4.7 km/h 6.4 km/h 37% 0.0 mm 889 W/m2
13:39 24.2 °C 8.6 °C 1020.7 hPa West 4.7 km/h 8 km/h 37% 0.0 mm 893 W/m2
13:44 24.1 °C 8.5 °C 1020.7 hPa North 7.9 km/h 12.9 km/h 37% 0.0 mm 896 W/m2
13:49 24.1 °C 7.7 °C 1020.7 hPa West 6.4 km/h 12.9 km/h 35% 0.0 mm 896 W/m2
13:54 24.1 °C 8.1 °C 1020.7 hPa WSW 7.9 km/h 11.3 km/h 36% 0.0 mm 898 W/m2
13:59 24.1 °C 8.5 °C 1020.7 hPa WSW 4.7 km/h 14.5 km/h 37% 0.0 mm 893 W/m2
14:04 24.3 °C 8.3 °C 1020.7 hPa East 1.4 km/h 6.4 km/h 36% 0.0 mm 898 W/m2
14:09 24.5 °C 7.2 °C 1020.7 hPa NE 3.2 km/h 12.9 km/h 33% 0.0 mm 905 W/m2
14:14 24.6 °C 5.9 °C 1020.7 hPa ESE 1.4 km/h 8 km/h 30% 0.0 mm 904 W/m2
14:19 24.7 °C 6.9 °C 1020.7 hPa West 6.4 km/h 12.9 km/h 32% 0.0 mm 895 W/m2
14:24 25 °C 8 °C 1020.7 hPa SE 4.7 km/h 9.7 km/h 34% 0.0 mm 888 W/m2
14:29 25.1 °C 8.1 °C 1020.7 hPa North 3.2 km/h 11.3 km/h 34% 0.0 mm 889 W/m2
14:34 25.1 °C 8.1 °C 1020.7 hPa SE 3.2 km/h 11.3 km/h 34% 0.0 mm 881 W/m2
14:39 25.3 °C 7 °C 1020.7 hPa WNW 4.7 km/h 6.4 km/h 31% 0.0 mm 877 W/m2
14:44 25.3 °C 7.4 °C 1020.7 hPa ENE 3.2 km/h 4.8 km/h 32% 0.0 mm 879 W/m2
Juneau County Weather
Compliments of Weather Underground - 2 mb